logo
Search for airport 
image banner adimage banner adimage banner ad
image banner ad

SDNT - Fazenda Terra Prometida

Located in Porto Nacional, Brazil

ICAO - SDNT, IATA -

Data provided by Airmate  

General information

Coordinates: S10°0'0" W48°0'0"
Elevation is 889 feet MSL.
Magnetic variation is -21.54677035° East
View others Airports in Tocatins

Operational data

Special qualification required
Current time UTC:
Current local time:
Weather at : SBPJ - Brigadeiro Lysias Rodrigues ( 51 km )
METAR: SBPJ 130200Z 18004KT CAVOK 26/17 Q1016
TAF: TAF SBPJ 130230Z 1306/1406 14005KT CAVOK TX33/1317Z TN21/1406Z BECMG 1315/1317 09006KT BECMG 1320/1322 12005KT RMK PGW
View NOTAMs / SUP AIP / TFR affecting this airport [VIEW]
Communications frequencies: [VIEW]

Runways:

RWY identifierQFULength (ft)Width (ft)SurfaceLDA (ft)
03397066ASPH
21397066ASPH

Airport contact information

Address: Porto Nacional Brazil

Satellite view of SDNT